WZZ5432 EPKK-EPGD
Flight info
| Callsign | WZZ5432 |
|---|---|
| Flight time | 0h 55m |
| Altitude | 32000 |
| Route | NAVUR6J NAVUR N744 OVBOR N133 GRUDA Z95 OSLOG OSLOG5T |
| Aircraft | A320/M-SDE3FGHIRWY/LB1 |
Departure
| Time | 2026-05-07 17:23 |
|---|---|
| Airport | Kraków John Paul II International Airport (EPKK) |
Arrival
| Time | 2026-05-07 18:18 |
|---|---|
| Airport | Gdańsk Lech Wałęsa Airport (EPGD) |
| Time | Latitude | Longitude | Altitude | Speed | Heading |
|---|---|---|---|---|---|
| 2026-05-07 16:43 | 50.07476 | 19.80141 | 790 ft | 0 kts | 171° |
| 2026-05-07 17:12 | 50.07475 | 19.80142 | 789 ft | 1 kts | 171° |
| 2026-05-07 17:13 | 50.07461 | 19.80145 | 789 ft | 3 kts | 171° |
| 2026-05-07 17:13 | 50.07433 | 19.80153 | 789 ft | 5 kts | 166° |
| 2026-05-07 17:13 | 50.07415 | 19.80202 | 789 ft | 7 kts | 88° |
| 2026-05-07 17:13 | 50.07427 | 19.80283 | 789 ft | 9 kts | 78° |
| 2026-05-07 17:14 | 50.07461 | 19.80370 | 789 ft | 11 kts | 31° |
| 2026-05-07 17:14 | 50.07532 | 19.80406 | 789 ft | 9 kts | 14° |
| 2026-05-07 17:14 | 50.07600 | 19.80410 | 789 ft | 11 kts | 350° |
| 2026-05-07 17:14 | 50.07677 | 19.80385 | 789 ft | 12 kts | 348° |
| 2026-05-07 17:15 | 50.07763 | 19.80358 | 789 ft | 12 kts | 348° |
| 2026-05-07 17:15 | 50.07837 | 19.80334 | 789 ft | 11 kts | 348° |
| 2026-05-07 17:15 | 50.07919 | 19.80306 | 788 ft | 13 kts | 347° |
| 2026-05-07 17:15 | 50.08002 | 19.80249 | 788 ft | 11 kts | 304° |
| 2026-05-07 17:16 | 50.08005 | 19.80177 | 789 ft | 0 kts | 258° |
| 2026-05-07 17:21 | 50.08005 | 19.80174 | 789 ft | 2 kts | 258° |
| 2026-05-07 17:22 | 50.07956 | 19.79819 | 791 ft | 69 kts | 257° |
| 2026-05-07 17:22 | 50.07811 | 19.78770 | 796 ft | 126 kts | 258° |
| 2026-05-07 17:22 | 50.07591 | 19.77212 | 846 ft | 164 kts | 256° |
| 2026-05-07 17:22 | 50.07348 | 19.75454 | 1366 ft | 166 kts | 256° |
| 2026-05-07 17:23 | 50.07101 | 19.73686 | 1923 ft | 175 kts | 258° |
| 2026-05-07 17:23 | 50.06826 | 19.71723 | 2218 ft | 197 kts | 258° |
| 2026-05-07 17:23 | 50.06518 | 19.69521 | 2549 ft | 220 kts | 258° |
| 2026-05-07 17:23 | 50.06187 | 19.67126 | 3217 ft | 229 kts | 261° |
| 2026-05-07 17:24 | 50.06323 | 19.64681 | 4020 ft | 234 kts | 294° |
| 2026-05-07 17:24 | 50.07443 | 19.62749 | 4588 ft | 256 kts | 328° |
| 2026-05-07 17:24 | 50.09155 | 19.61750 | 5299 ft | 269 kts | 344° |
| 2026-05-07 17:24 | 50.11024 | 19.61228 | 5845 ft | 276 kts | 354° |
| 2026-05-07 17:25 | 50.12943 | 19.61583 | 5996 ft | 281 kts | 14° |
| 2026-05-07 17:25 | 50.14756 | 19.62733 | 6026 ft | 283 kts | 27° |
| 2026-05-07 17:25 | 50.16377 | 19.64482 | 6024 ft | 285 kts | 40° |
| 2026-05-07 17:25 | 50.17876 | 19.66514 | 6030 ft | 285 kts | 39° |
| 2026-05-07 17:26 | 50.19380 | 19.68533 | 6053 ft | 287 kts | 39° |
| 2026-05-07 17:26 | 50.20898 | 19.70570 | 6812 ft | 288 kts | 39° |
| 2026-05-07 17:26 | 50.22428 | 19.72627 | 7657 ft | 292 kts | 40° |
| 2026-05-07 17:26 | 50.23973 | 19.74712 | 8467 ft | 296 kts | 40° |
| 2026-05-07 17:27 | 50.25542 | 19.76835 | 9241 ft | 301 kts | 40° |
| 2026-05-07 17:27 | 50.27134 | 19.78998 | 9995 ft | 305 kts | 40° |
| 2026-05-07 17:27 | 50.28778 | 19.81238 | 10350 ft | 325 kts | 40° |
| 2026-05-07 17:27 | 50.30538 | 19.83634 | 10630 ft | 343 kts | 41° |
| 2026-05-07 17:28 | 50.32332 | 19.86077 | 11226 ft | 349 kts | 39° |
| 2026-05-07 17:28 | 50.34348 | 19.88227 | 11873 ft | 354 kts | 26° |
| 2026-05-07 17:28 | 50.36640 | 19.89648 | 12525 ft | 356 kts | 13° |
| 2026-05-07 17:28 | 50.39089 | 19.90229 | 13193 ft | 357 kts | 360° |
| 2026-05-07 17:29 | 50.41588 | 19.90266 | 13860 ft | 361 kts | 358° |
| 2026-05-07 17:29 | 50.44113 | 19.90297 | 14449 ft | 365 kts | 358° |
| 2026-05-07 17:29 | 50.46665 | 19.90329 | 15024 ft | 369 kts | 358° |
| 2026-05-07 17:29 | 50.49242 | 19.90362 | 15592 ft | 373 kts | 359° |
| 2026-05-07 17:30 | 50.51855 | 19.90396 | 16146 ft | 377 kts | 359° |
| 2026-05-07 17:30 | 50.54492 | 19.90432 | 16703 ft | 381 kts | 359° |
| 2026-05-07 17:30 | 50.57158 | 19.90472 | 17306 ft | 386 kts | 358° |
| 2026-05-07 17:30 | 50.59859 | 19.90515 | 17815 ft | 391 kts | 358° |
| 2026-05-07 17:31 | 50.62599 | 19.90556 | 18365 ft | 396 kts | 358° |
| 2026-05-07 17:31 | 50.64980 | 19.90590 | 18782 ft | 399 kts | 358° |
| 2026-05-07 17:31 | 50.67709 | 19.90638 | 19269 ft | 403 kts | 359° |
| 2026-05-07 17:31 | 50.70529 | 19.90697 | 19777 ft | 407 kts | 359° |
| 2026-05-07 17:32 | 50.73379 | 19.90757 | 20277 ft | 412 kts | 359° |
| 2026-05-07 17:32 | 50.76258 | 19.90817 | 20768 ft | 416 kts | 359° |
| 2026-05-07 17:32 | 50.79163 | 19.90873 | 21243 ft | 420 kts | 359° |
| 2026-05-07 17:32 | 50.81105 | 19.90910 | 21564 ft | 422 kts | 358° |
| 2026-05-07 17:33 | 50.85063 | 19.90977 | 22180 ft | 428 kts | 358° |
| 2026-05-07 17:33 | 50.88057 | 19.91023 | 22653 ft | 432 kts | 358° |
| 2026-05-07 17:33 | 50.91077 | 19.91064 | 23126 ft | 436 kts | 358° |
| 2026-05-07 17:33 | 50.94134 | 19.91091 | 23580 ft | 441 kts | 358° |
| 2026-05-07 17:34 | 50.97213 | 19.91294 | 23973 ft | 446 kts | 5° |
| 2026-05-07 17:34 | 51.00274 | 19.92237 | 24369 ft | 451 kts | 15° |
| 2026-05-07 17:34 | 51.03221 | 19.93974 | 24765 ft | 454 kts | 26° |
| 2026-05-07 17:34 | 51.05983 | 19.96279 | 25134 ft | 456 kts | 26° |
| 2026-05-07 17:35 | 51.08964 | 19.98032 | 25501 ft | 459 kts | 12° |
| 2026-05-07 17:35 | 51.12115 | 19.98804 | 25873 ft | 459 kts | 1° |
| 2026-05-07 17:35 | 51.15296 | 19.98645 | 26258 ft | 457 kts | 347° |
| 2026-05-07 17:35 | 51.18365 | 19.97437 | 26632 ft | 454 kts | 339° |
| 2026-05-07 17:36 | 51.21404 | 19.95988 | 27007 ft | 457 kts | 339° |
| 2026-05-07 17:36 | 51.24457 | 19.94511 | 27373 ft | 459 kts | 339° |
| 2026-05-07 17:36 | 51.27521 | 19.93008 | 27745 ft | 462 kts | 338° |
| 2026-05-07 17:36 | 51.30601 | 19.91482 | 28116 ft | 463 kts | 338° |
| 2026-05-07 17:37 | 51.33616 | 19.89994 | 29370 ft | 442 kts | 338° |
| 2026-05-07 17:37 | 51.36493 | 19.88584 | 30437 ft | 428 kts | 338° |
| 2026-05-07 17:37 | 51.39365 | 19.87167 | 30596 ft | 436 kts | 338° |
| 2026-05-07 17:37 | 51.42271 | 19.85715 | 30728 ft | 444 kts | 338° |
| 2026-05-07 17:38 | 51.45240 | 19.84225 | 30856 ft | 451 kts | 338° |
| 2026-05-07 17:38 | 51.48266 | 19.82710 | 30988 ft | 459 kts | 338° |
| 2026-05-07 17:38 | 51.51339 | 19.81179 | 31116 ft | 466 kts | 338° |
| 2026-05-07 17:38 | 51.54459 | 19.79631 | 31263 ft | 473 kts | 338° |
| 2026-05-07 17:39 | 51.57624 | 19.78062 | 31421 ft | 478 kts | 339° |
| 2026-05-07 17:39 | 51.60815 | 19.76477 | 31740 ft | 480 kts | 338° |
| 2026-05-07 17:39 | 51.64003 | 19.74889 | 31954 ft | 480 kts | 338° |
| 2026-05-07 17:39 | 51.67158 | 19.73319 | 31992 ft | 468 kts | 338° |
| 2026-05-07 17:40 | 51.73334 | 19.70230 | 31991 ft | 463 kts | 338° |
| 2026-05-07 17:40 | 51.78442 | 19.67659 | 32001 ft | 463 kts | 338° |
| 2026-05-07 17:41 | 51.84588 | 19.64559 | 32001 ft | 463 kts | 338° |
| 2026-05-07 17:41 | 51.90733 | 19.61445 | 32001 ft | 463 kts | 338° |
| 2026-05-07 17:42 | 51.97870 | 19.57821 | 32004 ft | 463 kts | 338° |
| 2026-05-07 17:42 | 52.03019 | 19.55207 | 32004 ft | 463 kts | 338° |
| 2026-05-07 17:43 | 52.09164 | 19.52072 | 32005 ft | 463 kts | 338° |
| 2026-05-07 17:43 | 52.15257 | 19.48949 | 32005 ft | 462 kts | 338° |
| 2026-05-07 17:44 | 52.21400 | 19.45812 | 32021 ft | 462 kts | 338° |
| 2026-05-07 17:44 | 52.27526 | 19.42663 | 32020 ft | 462 kts | 338° |
| 2026-05-07 17:45 | 52.33650 | 19.39499 | 32014 ft | 461 kts | 338° |
| 2026-05-07 17:45 | 52.39769 | 19.36334 | 32028 ft | 461 kts | 338° |
| 2026-05-07 17:46 | 52.45858 | 19.33174 | 31723 ft | 452 kts | 338° |
| 2026-05-07 17:46 | 52.48827 | 19.31635 | 31461 ft | 444 kts | 338° |
| 2026-05-07 17:46 | 52.51760 | 19.30107 | 31216 ft | 440 kts | 338° |
| 2026-05-07 17:47 | 52.54671 | 19.28583 | 31002 ft | 439 kts | 337° |
| 2026-05-07 17:47 | 52.57569 | 19.27070 | 30711 ft | 435 kts | 338° |
| 2026-05-07 17:47 | 52.60458 | 19.25584 | 30296 ft | 434 kts | 338° |
| 2026-05-07 17:47 | 52.63342 | 19.24120 | 29849 ft | 433 kts | 338° |
| 2026-05-07 17:48 | 52.66185 | 19.22691 | 29458 ft | 430 kts | 338° |
| 2026-05-07 17:48 | 52.69049 | 19.21255 | 29059 ft | 428 kts | 338° |
| 2026-05-07 17:48 | 52.71884 | 19.19825 | 28680 ft | 425 kts | 338° |
| 2026-05-07 17:48 | 52.74705 | 19.18396 | 28331 ft | 424 kts | 338° |
| 2026-05-07 17:49 | 52.77534 | 19.16954 | 27842 ft | 425 kts | 338° |
| 2026-05-07 17:49 | 52.80358 | 19.15508 | 27369 ft | 425 kts | 338° |
| 2026-05-07 17:49 | 52.83182 | 19.14060 | 26894 ft | 425 kts | 338° |
| 2026-05-07 17:49 | 52.86014 | 19.12605 | 26379 ft | 427 kts | 338° |
| 2026-05-07 17:50 | 52.88851 | 19.11147 | 25884 ft | 428 kts | 338° |
| 2026-05-07 17:50 | 52.91697 | 19.09684 | 25394 ft | 428 kts | 338° |
| 2026-05-07 17:50 | 52.94539 | 19.08222 | 24909 ft | 428 kts | 338° |
| 2026-05-07 17:50 | 52.97386 | 19.06754 | 24459 ft | 428 kts | 337° |
| 2026-05-07 17:51 | 53.00209 | 19.05300 | 24231 ft | 420 kts | 337° |
| 2026-05-07 17:51 | 53.02969 | 19.03881 | 24106 ft | 410 kts | 337° |
| 2026-05-07 17:51 | 53.05655 | 19.02499 | 23990 ft | 400 kts | 337° |
| 2026-05-07 17:51 | 53.08288 | 19.01143 | 23596 ft | 396 kts | 337° |
| 2026-05-07 17:52 | 53.10937 | 18.99762 | 23103 ft | 396 kts | 337° |
| 2026-05-07 17:52 | 53.13534 | 18.98408 | 23024 ft | 384 kts | 337° |
| 2026-05-07 17:52 | 53.16065 | 18.97089 | 23045 ft | 380 kts | 336° |
| 2026-05-07 17:52 | 53.18574 | 18.95780 | 22654 ft | 377 kts | 337° |
| 2026-05-07 17:53 | 53.21069 | 18.94479 | 22253 ft | 374 kts | 337° |
| 2026-05-07 17:53 | 53.23546 | 18.93188 | 21868 ft | 371 kts | 337° |
| 2026-05-07 17:53 | 53.26000 | 18.91908 | 21513 ft | 367 kts | 337° |
| 2026-05-07 17:53 | 53.28427 | 18.90641 | 21168 ft | 364 kts | 337° |
| 2026-05-07 17:54 | 53.30838 | 18.89375 | 20801 ft | 362 kts | 337° |
| 2026-05-07 17:54 | 53.33199 | 18.88131 | 20426 ft | 359 kts | 338° |
| 2026-05-07 17:54 | 53.35572 | 18.86882 | 20071 ft | 357 kts | 338° |
| 2026-05-07 17:54 | 53.37934 | 18.85638 | 19711 ft | 355 kts | 338° |
| 2026-05-07 17:55 | 53.40278 | 18.84406 | 19385 ft | 352 kts | 339° |
| 2026-05-07 17:55 | 53.42604 | 18.83181 | 19065 ft | 349 kts | 339° |
| 2026-05-07 17:55 | 53.44910 | 18.81964 | 18734 ft | 346 kts | 339° |
| 2026-05-07 17:55 | 53.47195 | 18.80751 | 18400 ft | 344 kts | 339° |
| 2026-05-07 17:56 | 53.49471 | 18.79541 | 18013 ft | 342 kts | 339° |
| 2026-05-07 17:56 | 53.51748 | 18.78406 | 17633 ft | 342 kts | 345° |
| 2026-05-07 17:56 | 53.54111 | 18.77910 | 17257 ft | 342 kts | 354° |
| 2026-05-07 17:56 | 53.56475 | 18.77653 | 16891 ft | 340 kts | 354° |
| 2026-05-07 17:57 | 53.58823 | 18.77390 | 16526 ft | 337 kts | 354° |
| 2026-05-07 17:57 | 53.60374 | 18.77214 | 16296 ft | 336 kts | 354° |
| 2026-05-07 17:57 | 53.63478 | 18.76858 | 15819 ft | 333 kts | 353° |
| 2026-05-07 17:57 | 53.65779 | 18.76592 | 15468 ft | 331 kts | 353° |
| 2026-05-07 17:58 | 53.68074 | 18.76328 | 15120 ft | 329 kts | 354° |
| 2026-05-07 17:58 | 53.70350 | 18.76068 | 14778 ft | 327 kts | 354° |
| 2026-05-07 17:58 | 53.72618 | 18.75811 | 14437 ft | 325 kts | 354° |
| 2026-05-07 17:58 | 53.74872 | 18.75556 | 14101 ft | 324 kts | 354° |
| 2026-05-07 17:59 | 53.77114 | 18.75381 | 13754 ft | 323 kts | 359° |
| 2026-05-07 17:59 | 53.79326 | 18.75489 | 13387 ft | 321 kts | 359° |
| 2026-05-07 17:59 | 53.81553 | 18.75595 | 13019 ft | 319 kts | 360° |
| 2026-05-07 17:59 | 53.83768 | 18.75699 | 12652 ft | 318 kts | 360° |
| 2026-05-07 18:00 | 53.85970 | 18.75805 | 12286 ft | 316 kts | 0° |
| 2026-05-07 18:00 | 53.88163 | 18.75910 | 11931 ft | 314 kts | 360° |
| 2026-05-07 18:00 | 53.90348 | 18.76015 | 11579 ft | 313 kts | 360° |
| 2026-05-07 18:00 | 53.92520 | 18.76117 | 11228 ft | 312 kts | 0° |
| 2026-05-07 18:01 | 53.94684 | 18.76221 | 10880 ft | 310 kts | 360° |
| 2026-05-07 18:01 | 53.96832 | 18.76325 | 10536 ft | 308 kts | 0° |
| 2026-05-07 18:01 | 53.98974 | 18.76429 | 10195 ft | 307 kts | 0° |
| 2026-05-07 18:01 | 54.01108 | 18.76532 | 9847 ft | 306 kts | 1° |
| 2026-05-07 18:02 | 54.05299 | 18.76734 | 9475 ft | 293 kts | 2° |
| 2026-05-07 18:02 | 54.07310 | 18.76829 | 9475 ft | 283 kts | 2° |
| 2026-05-07 18:02 | 54.09231 | 18.76876 | 9476 ft | 269 kts | 356° |
| 2026-05-07 18:03 | 54.10999 | 18.76119 | 9406 ft | 259 kts | 335° |
| 2026-05-07 18:03 | 54.12446 | 18.74351 | 9339 ft | 257 kts | 313° |
| 2026-05-07 18:03 | 54.13423 | 18.71831 | 9241 ft | 255 kts | 293° |
| 2026-05-07 18:03 | 54.14119 | 18.69045 | 9100 ft | 256 kts | 293° |
| 2026-05-07 18:04 | 54.14807 | 18.66286 | 8963 ft | 256 kts | 293° |
| 2026-05-07 18:04 | 54.15704 | 18.63703 | 8797 ft | 253 kts | 316° |
| 2026-05-07 18:04 | 54.17185 | 18.62173 | 8675 ft | 250 kts | 346° |
| 2026-05-07 18:04 | 54.18896 | 18.62092 | 8519 ft | 247 kts | 15° |
| 2026-05-07 18:05 | 54.20497 | 18.63144 | 8378 ft | 247 kts | 24° |
| 2026-05-07 18:05 | 54.21975 | 18.64576 | 8217 ft | 244 kts | 45° |
| 2026-05-07 18:05 | 54.22854 | 18.66999 | 8069 ft | 242 kts | 75° |
| 2026-05-07 18:05 | 54.22905 | 18.69840 | 7948 ft | 241 kts | 105° |
| 2026-05-07 18:06 | 54.22299 | 18.72524 | 7819 ft | 242 kts | 112° |
| 2026-05-07 18:06 | 54.21636 | 18.75161 | 7683 ft | 241 kts | 112° |
| 2026-05-07 18:06 | 54.20971 | 18.77795 | 7548 ft | 241 kts | 112° |
| 2026-05-07 18:06 | 54.20305 | 18.80421 | 7416 ft | 241 kts | 113° |
| 2026-05-07 18:07 | 54.19638 | 18.83053 | 7296 ft | 240 kts | 113° |
| 2026-05-07 18:07 | 54.18977 | 18.85666 | 7012 ft | 239 kts | 112° |
| 2026-05-07 18:07 | 54.18318 | 18.88270 | 6691 ft | 240 kts | 113° |
| 2026-05-07 18:07 | 54.17653 | 18.90899 | 6370 ft | 241 kts | 112° |
| 2026-05-07 18:08 | 54.16991 | 18.93512 | 6076 ft | 240 kts | 112° |
| 2026-05-07 18:08 | 54.16330 | 18.96112 | 5794 ft | 237 kts | 111° |
| 2026-05-07 18:08 | 54.15968 | 18.98798 | 5503 ft | 231 kts | 86° |
| 2026-05-07 18:08 | 54.16311 | 19.01410 | 5223 ft | 224 kts | 62° |
| 2026-05-07 18:09 | 54.17256 | 19.03444 | 5029 ft | 217 kts | 37° |
| 2026-05-07 18:09 | 54.18565 | 19.04572 | 4889 ft | 208 kts | 14° |
| 2026-05-07 18:09 | 54.19964 | 19.04681 | 4762 ft | 202 kts | 352° |
| 2026-05-07 18:09 | 54.21258 | 19.03850 | 4615 ft | 198 kts | 330° |
| 2026-05-07 18:10 | 54.22260 | 19.02241 | 4375 ft | 200 kts | 308° |
| 2026-05-07 18:10 | 54.22971 | 19.00193 | 4101 ft | 201 kts | 304° |
| 2026-05-07 18:10 | 54.23671 | 18.98137 | 3828 ft | 199 kts | 304° |
| 2026-05-07 18:10 | 54.24366 | 18.96100 | 3562 ft | 198 kts | 305° |
| 2026-05-07 18:11 | 54.25058 | 18.94066 | 3362 ft | 193 kts | 305° |
| 2026-05-07 18:11 | 54.25493 | 18.92776 | 3292 ft | 186 kts | 305° |
| 2026-05-07 18:11 | 54.26331 | 18.90297 | 3098 ft | 174 kts | 306° |
| 2026-05-07 18:11 | 54.26919 | 18.88595 | 3006 ft | 157 kts | 311° |
| 2026-05-07 18:12 | 54.27500 | 18.87067 | 3009 ft | 152 kts | 306° |
| 2026-05-07 18:12 | 54.27991 | 18.85476 | 3009 ft | 151 kts | 302° |
| 2026-05-07 18:12 | 54.28440 | 18.83849 | 3012 ft | 151 kts | 301° |
| 2026-05-07 18:12 | 54.28870 | 18.82208 | 3013 ft | 151 kts | 300° |
| 2026-05-07 18:13 | 54.29292 | 18.80559 | 3014 ft | 151 kts | 300° |
| 2026-05-07 18:13 | 54.29709 | 18.78910 | 3015 ft | 151 kts | 300° |
| 2026-05-07 18:13 | 54.30125 | 18.77258 | 3015 ft | 151 kts | 300° |
| 2026-05-07 18:13 | 54.30539 | 18.75610 | 3015 ft | 151 kts | 300° |
| 2026-05-07 18:14 | 54.30947 | 18.73981 | 3013 ft | 151 kts | 300° |
| 2026-05-07 18:14 | 54.31361 | 18.72329 | 3012 ft | 151 kts | 300° |
| 2026-05-07 18:14 | 54.31775 | 18.70674 | 3011 ft | 151 kts | 300° |
| 2026-05-07 18:14 | 54.32189 | 18.69018 | 2974 ft | 152 kts | 300° |
| 2026-05-07 18:15 | 54.32603 | 18.67363 | 2828 ft | 151 kts | 300° |
| 2026-05-07 18:15 | 54.33014 | 18.65715 | 2638 ft | 150 kts | 300° |
| 2026-05-07 18:15 | 54.33424 | 18.64070 | 2447 ft | 150 kts | 300° |
| 2026-05-07 18:15 | 54.33832 | 18.62432 | 2233 ft | 149 kts | 300° |
| 2026-05-07 18:16 | 54.34240 | 18.60797 | 2039 ft | 149 kts | 300° |
| 2026-05-07 18:16 | 54.34645 | 18.59167 | 1832 ft | 148 kts | 300° |
| 2026-05-07 18:16 | 54.35046 | 18.57553 | 1613 ft | 146 kts | 299° |
| 2026-05-07 18:16 | 54.35444 | 18.55954 | 1400 ft | 145 kts | 299° |
| 2026-05-07 18:17 | 54.35836 | 18.54373 | 1198 ft | 143 kts | 297° |
| 2026-05-07 18:17 | 54.36225 | 18.52809 | 1003 ft | 142 kts | 296° |
| 2026-05-07 18:17 | 54.36607 | 18.51237 | 785 ft | 142 kts | 297° |
| 2026-05-07 18:17 | 54.36997 | 18.49681 | 570 ft | 141 kts | 296° |
| 2026-05-07 18:18 | 54.37372 | 18.48174 | 482 ft | 126 kts | 295° |
| 2026-05-07 18:18 | 54.37587 | 18.47326 | 481 ft | 12 kts | 269° |
| 2026-05-07 18:18 | 54.37612 | 18.47186 | 476 ft | 14 kts | 299° |
| 2026-05-07 18:18 | 54.37664 | 18.47020 | 474 ft | 18 kts | 302° |
| 2026-05-07 18:19 | 54.37749 | 18.46843 | 476 ft | 18 kts | 316° |
| 2026-05-07 18:19 | 54.37829 | 18.46732 | 475 ft | 0 kts | 324° |
| 2026-05-07 18:21 | 54.37830 | 18.46731 | 475 ft | 1 kts | 324° |
| 2026-05-07 18:21 | 54.37848 | 18.46709 | 475 ft | 5 kts | 324° |
| 2026-05-07 18:21 | 54.37886 | 18.46661 | 474 ft | 9 kts | 323° |
| 2026-05-07 18:22 | 54.37943 | 18.46590 | 474 ft | 11 kts | 334° |
| 2026-05-07 18:22 | 54.37998 | 18.46592 | 474 ft | 13 kts | 19° |
| 2026-05-07 18:22 | 54.38080 | 18.46596 | 474 ft | 7 kts | 355° |
| 2026-05-07 18:22 | 54.38112 | 18.46615 | 474 ft | 1 kts | 27° |
| 2026-05-07 18:23 | 54.38119 | 18.46620 | 474 ft | 0 kts | 25° |
| 2026-05-07 18:23 | 54.38119 | 18.46621 | 474 ft | 0 kts | 25° |